Dunmore, West Virginia
Current Conditions -  °F | °C
As of 10:15 AM on Wednesday 26 Nov 2014 (Local Time) from KHSP Reporting Station
Heavy Snow Heavy Snow  
Wind Chill: 32°   Ceiling: 200
Heat Index: 32°   Visibility: 0.25mi
Dew Point: 32°   Wind: 3mph
Humidity: 100%   Direction: 360°N
Pressure: 29.92"   Gusts: NA
Location:  38.36°N, 79.88°W
Report Text: KHSP 261515Z AUTO 36003KT 1/4SM +SN OVC002 00/00 A2992 RMK AO2 P0002 T00000000
Loading
Personal Weather Stations






























Interactive Weather Map New forecast layout! Learn more

10-Day Weather Forecast

Advertisements
Track Severe Weather on mobile